Time;durP1;ratioP1;P1;durP2;ratioP2;P2;SDS_P1;SDS_P2;PMS_P1;PMS_P2;Temp;Humidity;BMP_temperature;BMP_pressure;BME280_temperature;BME280_humidity;BME280_pressure;Samples;Min_cycle;Max_cycle;Signal;HPM_P1;HPM_P2
2022/06/13 00:01:23;;;;;;;9.23;2.63;;;13.40;99.90;;;;;;4997687;28;20220;-63
2022/06/13 00:03:51;;;;;;;6.07;2.75;;;13.40;99.90;;;;;;4992950;28;20300;-62
2022/06/13 00:06:18;;;;;;;8.73;3.08;;;13.50;99.90;;;;;;5020206;28;20232;-62
2022/06/13 00:08:45;;;;;;;11.70;3.25;;;13.50;99.90;;;;;;4996566;28;20710;-61
2022/06/13 00:11:16;;;;;;;11.25;3.60;;;13.50;99.90;;;;;;5005025;28;20209;-62
2022/06/13 00:13:46;;;;;;;9.32;2.97;;;13.60;99.90;;;;;;5008239;28;22969;-62
2022/06/13 00:16:14;;;;;;;9.77;3.35;;;13.50;99.90;;;;;;5003922;28;20209;-62
2022/06/13 00:18:47;;;;;;;8.38;3.00;;;13.70;99.90;;;;;;5000096;28;20328;-62
2022/06/13 00:21:15;;;;;;;10.32;3.25;;;13.60;99.90;;;;;;5022793;28;20205;-62
2022/06/13 00:23:42;;;;;;;9.45;3.33;;;13.50;99.90;;;;;;4999380;28;20229;-62
2022/06/13 00:26:08;;;;;;;7.93;2.58;;;13.50;99.90;;;;;;5011374;28;20806;-63
2022/06/13 00:28:35;;;;;;;9.88;2.90;;;13.40;99.90;;;;;;5002547;28;20202;-63
2022/06/13 00:31:03;;;;;;;8.60;3.58;;;13.40;99.90;;;;;;5015482;28;20217;-62
2022/06/13 00:33:30;;;;;;;9.38;3.47;;;13.50;99.90;;;;;;5003837;28;20232;-63
2022/06/13 00:35:57;;;;;;;12.50;3.80;;;13.40;99.90;;;;;;5004846;28;20214;-62
2022/06/13 00:38:24;;;;;;;10.38;3.40;;;14.20;99.90;;;;;;5011810;28;20197;-62
2022/06/13 00:40:51;;;;;;;14.60;3.72;;;13.40;99.90;;;;;;5026559;28;20675;-62
2022/06/13 00:43:18;;;;;;;7.32;3.50;;;13.40;99.90;;;;;;4998072;28;20214;-62
2022/06/13 00:45:46;;;;;;;8.88;3.40;;;13.40;99.90;;;;;;5008754;28;20326;-62
2022/06/13 00:48:16;;;;;;;8.20;3.25;;;13.40;99.90;;;;;;5017260;28;20220;-62
2022/06/13 00:50:47;;;;;;;11.70;3.08;;;13.50;99.90;;;;;;5007423;28;20843;-62
2022/06/13 00:53:18;;;;;;;14.38;3.72;;;13.40;99.90;;;;;;4996638;28;20662;-62
2022/06/13 00:55:49;;;;;;;8.00;3.30;;;13.50;99.90;;;;;;5014920;28;20198;-62
2022/06/13 00:58:16;;;;;;;6.50;2.85;;;13.50;99.90;;;;;;4999501;28;20213;-62
2022/06/13 01:00:47;;;;;;;7.13;3.08;;;13.40;99.90;;;;;;5014654;28;20201;-62
2022/06/13 01:03:16;;;;;;;8.80;3.60;;;13.40;99.90;;;;;;4992413;28;20206;-62
2022/06/13 01:05:47;;;;;;;11.27;3.47;;;13.40;99.90;;;;;;5002770;28;20232;-62
2022/06/13 01:08:15;;;;;;;10.60;3.58;;;13.40;99.90;;;;;;5006965;28;20240;-63
2022/06/13 01:13:48;;;;;;;7.72;3.15;;;13.40;99.90;;;;;;4998522;28;20225;-62
2022/06/13 01:16:27;;;;;;;8.32;3.03;;;13.40;99.90;;;;;;5021505;28;20574;-62
2022/06/13 01:19:36;;;;;;;11.75;3.30;;;13.40;99.90;;;;;;5011082;28;20217;-62
2022/06/13 01:22:22;;;;;;;9.15;3.28;;;12.20;99.90;;;;;;4994714;28;20236;-62
2022/06/13 01:25:06;;;;;;;8.07;2.80;;;14.40;99.90;;;;;;5011211;28;20209;-62
2022/06/13 01:28:09;;;;;;;9.57;2.95;;;13.00;99.90;;;;;;4987173;28;20776;-62
2022/06/13 01:30:56;;;;;;;8.27;4.10;;;13.20;99.90;;;;;;5014886;28;20690;-62
2022/06/13 01:33:34;;;;;;;5.32;2.67;;;13.10;99.90;;;;;;5011566;28;20579;-62
2022/06/13 01:36:17;;;;;;;14.85;3.60;;;13.10;99.90;;;;;;5023384;28;20205;-64
2022/06/13 01:39:05;;;;;;;9.65;3.10;;;13.50;99.90;;;;;;5002473;28;20809;-62
2022/06/13 01:41:38;;;;;;;8.20;3.03;;;13.10;99.90;;;;;;5010661;28;20224;-63
2022/06/13 01:44:12;;;;;;;9.57;3.55;;;13.20;99.90;;;;;;5009276;28;20213;-62
2022/06/13 01:46:47;;;;;;;9.30;3.28;;;13.20;99.90;;;;;;5021035;28;20229;-62
2022/06/13 01:49:26;;;;;;;7.00;3.50;;;13.20;99.90;;;;;;5005396;28;20216;-62
2022/06/13 01:51:59;;;;;;;13.98;3.45;;;13.20;99.90;;;;;;5021948;28;20194;-62
2022/06/13 01:54:34;;;;;;;10.77;3.00;;;13.30;99.90;;;;;;5000406;28;20205;-62
2022/06/13 01:57:11;;;;;;;7.03;2.88;;;13.20;99.90;;;;;;5011234;28;20216;-62
2022/06/13 01:59:45;;;;;;;7.22;3.10;;;13.20;99.90;;;;;;5001536;28;20216;-62
2022/06/13 02:02:23;;;;;;;8.15;2.80;;;13.30;99.90;;;;;;5025178;28;20892;-62
2022/06/13 02:04:59;;;;;;;6.82;2.92;;;13.30;99.90;;;;;;5011059;28;20359;-62
2022/06/13 02:07:31;;;;;;;7.50;3.10;;;13.30;99.90;;;;;;5005416;28;20228;-62
2022/06/13 02:10:01;;;;;;;8.73;3.22;;;14.10;99.90;;;;;;5007632;28;20228;-63
2022/06/13 02:12:32;;;;;;;6.43;3.60;;;13.40;99.90;;;;;;5001238;28;20208;-62
2022/06/13 02:15:05;;;;;;;7.72;3.28;;;13.30;99.90;;;;;;5001593;28;20332;-62
2022/06/13 02:17:39;;;;;;;9.02;3.40;;;13.30;99.90;;;;;;5026684;28;20229;-62
2022/06/13 02:20:09;;;;;;;9.68;3.85;;;13.20;99.90;;;;;;5006128;28;20255;-62
2022/06/13 02:22:39;;;;;;;10.52;3.00;;;13.20;99.90;;;;;;5021492;28;20229;-62
2022/06/13 02:25:12;;;;;;;6.63;2.70;;;13.20;99.90;;;;;;5002466;28;20367;-62
2022/06/13 02:27:42;;;;;;;6.55;3.30;;;13.20;99.90;;;;;;5008833;28;20234;-62
2022/06/13 02:30:13;;;;;;;9.70;3.30;;;13.20;99.90;;;;;;5009100;28;20205;-63
2022/06/13 02:32:48;;;;;;;8.40;4.07;;;12.00;99.90;;;;;;5018043;28;20223;-62
2022/06/13 02:35:18;;;;;;;9.45;3.50;;;13.40;99.90;;;;;;5026450;28;20209;-62
2022/06/13 02:37:51;;;;;;;12.10;3.35;;;13.30;99.90;;;;;;4998635;28;21619;-63
2022/06/13 02:40:24;;;;;;;6.40;3.97;;;13.40;99.90;;;;;;5014009;28;20235;-62
2022/06/13 02:42:56;;;;;;;12.55;3.92;;;13.60;99.90;;;;;;5008790;28;20667;-63
2022/06/13 02:45:27;;;;;;;6.80;3.45;;;13.40;99.90;;;;;;5006729;28;20217;-62
2022/06/13 02:48:02;;;;;;;9.27;4.20;;;13.40;99.90;;;;;;5020468;28;20229;-62
2022/06/13 02:50:36;;;;;;;11.32;3.50;;;13.40;99.90;;;;;;5013025;28;20197;-62
2022/06/13 02:53:09;;;;;;;13.15;4.25;;;13.20;99.90;;;;;;5018680;28;20327;-62
2022/06/13 02:55:42;;;;;;;9.25;4.10;;;13.30;99.90;;;;;;5011328;28;21319;-62
2022/06/13 02:58:19;;;;;;;7.78;4.30;;;13.40;99.90;;;;;;5009083;28;20217;-62
2022/06/13 03:00:57;;;;;;;6.65;3.83;;;13.40;99.90;;;;;;5011002;28;20216;-62
2022/06/13 03:03:34;;;;;;;10.07;4.70;;;13.50;99.90;;;;;;5001333;28;20228;-62
2022/06/13 03:06:07;;;;;;;15.05;4.80;;;13.40;99.90;;;;;;5007286;28;20209;-63
2022/06/13 03:09:00;;;;;;;9.27;3.77;;;13.60;99.90;;;;;;4975074;28;1074954;-63
2022/06/13 03:11:45;;;;;;;8.85;4.65;;;13.60;99.90;;;;;;5013502;28;20207;-61
2022/06/13 03:14:20;;;;;;;8.23;4.05;;;13.50;99.90;;;;;;5011340;28;20576;-62
2022/06/13 03:16:53;;;;;;;12.23;4.60;;;13.50;99.90;;;;;;5001118;28;20212;-62
2022/06/13 03:19:24;;;;;;;10.40;4.78;;;13.50;99.90;;;;;;5022500;28;20226;-62
2022/06/13 03:21:55;;;;;;;10.88;5.07;;;13.50;99.90;;;;;;5023056;28;20206;-62
2022/06/13 03:24:30;;;;;;;11.32;4.85;;;13.50;99.90;;;;;;5019890;28;20209;-61
2022/06/13 03:27:01;;;;;;;10.88;4.22;;;14.10;99.90;;;;;;5012602;28;20625;-61
2022/06/13 03:29:32;;;;;;;14.88;4.28;;;13.30;99.90;;;;;;5012682;28;20216;-60
2022/06/13 03:32:05;;;;;;;13.07;4.30;;;13.50;99.90;;;;;;5005710;28;20224;-60
2022/06/13 03:34:36;;;;;;;11.30;4.78;;;13.50;99.90;;;;;;5018829;28;20212;-61
2022/06/13 03:37:08;;;;;;;13.77;4.97;;;13.50;99.90;;;;;;5022537;28;20206;-62
2022/06/13 03:39:41;;;;;;;12.40;4.82;;;13.50;99.90;;;;;;5018017;28;20263;-61
2022/06/13 03:42:13;;;;;;;11.43;4.30;;;13.40;99.90;;;;;;5021822;28;20205;-62
2022/06/13 03:44:45;;;;;;;10.45;4.45;;;13.50;99.90;;;;;;5010294;28;21066;-63
2022/06/13 03:47:17;;;;;;;12.55;4.60;;;13.50;99.90;;;;;;5001946;28;20237;-63
2022/06/13 03:49:51;;;;;;;10.93;5.10;;;13.40;99.90;;;;;;5010214;28;21054;-63
2022/06/13 03:52:19;;;;;;;13.57;5.25;;;13.40;99.90;;;;;;5020118;28;20274;-63
2022/06/13 03:54:51;;;;;;;9.80;5.00;;;13.50;99.90;;;;;;5007426;28;20202;-63
2022/06/13 03:57:23;;;;;;;10.25;4.90;;;13.40;99.90;;;;;;5018410;28;21233;-63
2022/06/13 03:59:56;;;;;;;9.07;4.10;;;13.50;99.90;;;;;;4991884;28;20604;-63
2022/06/13 04:02:27;;;;;;;13.43;4.80;;;13.50;99.90;;;;;;4993642;28;20304;-61
2022/06/13 04:04:56;;;;;;;9.02;4.20;;;13.50;99.90;;;;;;5015105;28;20221;-62
2022/06/13 04:07:25;;;;;;;14.30;4.63;;;13.50;99.90;;;;;;4997632;28;20229;-61
2022/06/13 04:09:57;;;;;;;8.18;4.35;;;13.60;99.90;;;;;;5019788;28;20749;-61
2022/06/13 04:12:42;;;;;;;9.85;3.83;;;13.60;99.90;;;;;;5007641;28;20205;-61
2022/06/13 04:15:36;;;;;;;8.77;4.45;;;13.70;99.90;;;;;;5022797;22;20711;-62
2022/06/13 04:18:09;;;;;;;13.20;4.55;;;13.70;99.90;;;;;;5007810;28;20220;-61
2022/06/13 04:20:45;;;;;;;16.23;5.13;;;13.70;99.90;;;;;;4981680;28;21554;-62
2022/06/13 04:23:20;;;;;;;9.77;3.70;;;13.80;99.90;;;;;;5043539;22;20248;-61
2022/06/13 04:25:52;;;;;;;11.25;4.65;;;13.70;99.90;;;;;;4996265;28;20206;-63
2022/06/13 04:28:25;;;;;;;14.48;4.65;;;13.70;99.90;;;;;;5011457;28;20233;-62
2022/06/13 04:30:55;;;;;;;10.85;4.45;;;13.50;99.90;;;;;;4987086;22;20233;-62
2022/06/13 04:33:26;;;;;;;13.85;4.80;;;13.80;99.90;;;;;;4955772;28;20210;-62
2022/06/13 04:35:55;;;;;;;11.85;4.43;;;13.80;99.90;;;;;;4976917;28;20217;-61
2022/06/13 04:38:23;;;;;;;9.82;4.72;;;13.80;99.90;;;;;;4991358;28;20214;-62
2022/06/13 04:40:57;;;;;;;12.95;4.47;;;13.80;99.90;;;;;;4976036;28;20201;-62
2022/06/13 04:43:27;;;;;;;11.85;4.28;;;14.00;99.90;;;;;;4970521;28;20226;-61
2022/06/13 04:46:00;;;;;;;9.60;4.28;;;13.90;99.90;;;;;;4975369;28;20254;-62
2022/06/13 04:48:28;;;;;;;12.63;5.05;;;13.90;99.90;;;;;;4997017;28;20238;-61
2022/06/13 04:51:01;;;;;;;11.82;4.53;;;13.90;99.90;;;;;;4977711;28;21003;-62
2022/06/13 04:53:35;;;;;;;6.60;4.47;;;13.90;99.90;;;;;;4974271;28;20209;-62
2022/06/13 04:56:02;;;;;;;9.15;3.90;;;13.90;99.90;;;;;;4985212;28;21728;-61
2022/06/13 04:58:31;;;;;;;9.50;3.90;;;14.00;99.90;;;;;;4971842;28;20230;-61
2022/06/13 05:01:03;;;;;;;12.80;4.10;;;13.90;99.90;;;;;;4982488;28;20230;-63
2022/06/13 05:03:33;;;;;;;10.88;4.40;;;14.00;99.90;;;;;;4975600;28;20229;-63
2022/06/13 05:06:05;;;;;;;10.32;4.00;;;14.00;99.90;;;;;;4977490;28;20214;-63
2022/06/13 05:08:40;;;;;;;9.05;4.45;;;14.30;99.90;;;;;;4983266;28;20238;-63
2022/06/13 05:11:14;;;;;;;10.93;5.03;;;12.10;99.90;;;;;;5010310;22;20374;-62
2022/06/13 05:13:41;;;;;;;13.15;4.90;;;13.80;99.90;;;;;;5005568;28;20224;-62
2022/06/13 05:16:23;;;;;;;16.38;4.53;;;14.00;99.90;;;;;;5003650;28;20194;-62
2022/06/13 05:19:10;;;;;;;14.77;4.38;;;14.10;99.90;;;;;;4995657;28;20306;-63
2022/06/13 05:21:48;;;;;;;9.00;4.18;;;14.10;99.90;;;;;;5007661;28;20213;-62
2022/06/13 05:24:40;;;;;;;11.23;4.40;;;14.30;99.90;;;;;;4998924;28;20830;-63
2022/06/13 05:27:08;;;;;;;12.20;5.10;;;14.20;99.90;;;;;;5009516;28;20582;-62
2022/06/13 05:29:35;;;;;;;10.10;4.70;;;14.30;99.90;;;;;;5011483;28;20222;-63
2022/06/13 05:32:02;;;;;;;8.48;4.30;;;14.30;99.90;;;;;;5020240;28;20264;-62
2022/06/13 05:34:33;;;;;;;12.15;4.30;;;14.30;99.90;;;;;;4986492;28;21110;-63
2022/06/13 05:37:02;;;;;;;12.45;4.25;;;14.30;99.90;;;;;;4995473;28;20202;-62
2022/06/13 05:39:30;;;;;;;11.35;4.70;;;14.30;99.90;;;;;;5006999;28;20213;-63
2022/06/13 05:41:56;;;;;;;12.07;4.90;;;14.40;99.90;;;;;;5017876;28;20198;-63
2022/06/13 05:44:23;;;;;;;15.65;4.60;;;14.40;99.90;;;;;;5016707;28;20666;-62
2022/06/13 05:46:50;;;;;;;14.63;4.65;;;14.50;99.90;;;;;;5005340;28;20212;-62
2022/06/13 05:49:17;;;;;;;12.73;4.90;;;14.50;99.90;;;;;;4998016;28;20346;-63
2022/06/13 05:51:45;;;;;;;14.45;4.53;;;14.50;99.90;;;;;;5014233;28;20228;-62
2022/06/13 05:54:14;;;;;;;11.07;4.70;;;14.50;99.90;;;;;;4982615;28;20759;-63
2022/06/13 05:56:41;;;;;;;13.93;5.15;;;14.60;99.90;;;;;;5008456;28;20828;-62
2022/06/13 05:59:09;;;;;;;11.13;4.15;;;14.50;99.90;;;;;;5015329;28;20208;-63
2022/06/13 06:01:36;;;;;;;18.13;4.85;;;14.60;99.90;;;;;;5025602;28;20236;-63
2022/06/13 06:04:04;;;;;;;17.60;4.85;;;14.60;99.90;;;;;;5006293;28;20233;-63
2022/06/13 06:06:33;;;;;;;9.10;4.68;;;14.60;99.90;;;;;;5002970;28;20225;-63
2022/06/13 06:09:00;;;;;;;10.80;4.63;;;14.70;99.90;;;;;;4988382;28;20229;-63
2022/06/13 06:11:30;;;;;;;14.60;4.47;;;15.20;99.90;;;;;;5008103;28;20229;-62
2022/06/13 06:13:58;;;;;;;10.35;4.53;;;14.70;99.90;;;;;;5025690;28;20898;-63
2022/06/13 06:16:26;;;;;;;9.07;3.92;;;14.80;99.90;;;;;;5022119;28;20672;-63
2022/06/13 06:18:54;;;;;;;13.98;4.57;;;15.00;99.90;;;;;;5005572;28;20197;-62
2022/06/13 06:21:20;;;;;;;9.30;4.18;;;15.20;99.90;;;;;;5008810;28;20205;-63
2022/06/13 06:23:47;;;;;;;10.00;3.70;;;14.80;99.90;;;;;;4992530;28;20232;-63
2022/06/13 06:26:16;;;;;;;13.52;4.43;;;14.80;99.90;;;;;;4993173;28;20804;-62
2022/06/13 06:28:44;;;;;;;8.90;4.30;;;14.80;99.90;;;;;;5001201;28;20850;-62
2022/06/13 06:31:12;;;;;;;8.75;3.92;;;13.60;99.90;;;;;;5008784;28;20730;-63
2022/06/13 06:33:38;;;;;;;10.30;4.35;;;15.00;99.90;;;;;;5019610;28;20222;-62
2022/06/13 06:36:06;;;;;;;11.88;4.57;;;15.20;99.90;;;;;;4995959;28;20900;-63
2022/06/13 06:38:33;;;;;;;10.85;3.53;;;15.10;99.90;;;;;;5004893;28;20225;-63
2022/06/13 06:40:59;;;;;;;8.88;3.58;;;15.10;99.90;;;;;;5022090;28;20200;-63
2022/06/13 06:43:26;;;;;;;9.70;3.17;;;15.10;99.90;;;;;;5015431;28;20216;-62
2022/06/13 06:45:54;;;;;;;14.85;4.53;;;14.90;99.90;;;;;;5018203;28;20213;-63
2022/06/13 06:48:23;;;;;;;19.00;3.13;;;14.90;99.90;;;;;;5005078;28;20979;-65
2022/06/13 06:50:51;;;;;;;7.57;2.40;;;14.40;99.90;;;;;;5016165;28;20205;-65
2022/06/13 06:53:20;;;;;;;6.65;2.58;;;13.90;99.90;;;;;;5015801;28;20411;-65
2022/06/13 07:01:20;;;;;;;5.75;1.52;;;13.00;99.90;;;;;;5009108;28;20220;-64
2022/06/13 07:03:47;;;;;;;5.20;1.40;;;12.90;99.90;;;;;;5033095;28;20941;-64
2022/06/13 07:06:15;;;;;;;9.65;1.95;;;12.90;99.90;;;;;;5017359;28;20824;-65
2022/06/13 07:08:43;;;;;;;3.28;1.75;;;12.90;99.90;;;;;;5029006;28;20999;-64
2022/06/13 07:14:00;;;;;;;3.03;1.30;;;13.10;99.90;;;;;;5005786;28;20957;-64
2022/06/13 07:16:28;;;;;;;2.00;1.38;;;13.20;99.90;;;;;;5008248;28;20214;-64
2022/06/13 07:18:55;;;;;;;3.13;1.38;;;13.30;99.90;;;;;;5015546;28;20728;-65
2022/06/13 07:21:22;;;;;;;2.55;1.20;;;13.30;99.90;;;;;;5012284;28;20717;-64
2022/06/13 07:23:49;;;;;;;2.28;1.52;;;13.30;99.90;;;;;;5026230;28;20218;-64
2022/06/13 07:26:16;;;;;;;1.95;1.02;;;13.30;99.90;;;;;;4987645;28;21005;-65
2022/06/13 07:28:42;;;;;;;2.00;1.15;;;13.30;99.90;;;;;;5012650;28;20233;-64
2022/06/13 07:31:17;;;;;;;3.42;1.35;;;13.20;99.90;;;;;;5007189;28;20321;-64
2022/06/13 07:33:46;;;;;;;2.58;1.00;;;13.40;99.90;;;;;;5020235;28;20205;-65
2022/06/13 07:36:13;;;;;;;1.63;1.08;;;13.40;99.90;;;;;;5005071;28;20397;-64
2022/06/13 07:38:39;;;;;;;1.90;1.20;;;13.50;99.90;;;;;;5007760;28;20201;-65
2022/06/13 07:41:07;;;;;;;1.83;1.08;;;13.70;99.90;;;;;;4999542;28;20592;-64
2022/06/13 07:43:36;;;;;;;3.72;1.40;;;13.80;99.90;;;;;;5014633;28;20217;-64
2022/06/13 07:46:08;;;;;;;5.95;1.67;;;14.00;99.90;;;;;;5005671;28;20283;-64
2022/06/13 07:48:35;;;;;;;3.03;1.30;;;14.00;99.90;;;;;;5024272;28;20725;-64
2022/06/13 07:51:05;;;;;;;4.22;1.27;;;14.20;99.90;;;;;;4998252;28;20221;-64
2022/06/13 07:53:32;;;;;;;1.42;1.10;;;14.40;99.90;;;;;;4997980;28;21079;-64
2022/06/13 07:55:59;;;;;;;1.63;0.90;;;14.40;99.90;;;;;;4991774;28;20244;-64
2022/06/13 07:58:31;;;;;;;1.50;1.00;;;14.50;99.90;;;;;;4992609;28;21079;-63
2022/06/13 08:00:59;;;;;;;1.90;1.42;;;14.20;99.90;;;;;;5004562;28;20327;-64
2022/06/13 08:03:28;;;;;;;2.28;1.40;;;14.40;99.90;;;;;;5015737;28;22846;-64
2022/06/13 08:05:56;;;;;;;0.75;0.75;;;14.70;99.90;;;;;;5000634;28;20208;-64
2022/06/13 08:08:24;;;;;;;6.13;1.33;;;14.60;99.90;;;;;;5011305;28;20225;-64
2022/06/13 08:10:53;;;;;;;2.25;0.90;;;14.70;99.90;;;;;;5015975;28;20298;-64
2022/06/13 08:13:21;;;;;;;2.67;1.27;;;14.60;99.90;;;;;;4986932;28;20842;-64
2022/06/13 08:15:50;;;;;;;2.83;1.20;;;14.70;99.90;;;;;;4997639;28;20230;-64
2022/06/13 08:18:17;;;;;;;8.38;1.30;;;14.60;99.90;;;;;;5014563;28;20315;-64
2022/06/13 08:20:44;;;;;;;0.95;0.88;;;14.80;99.90;;;;;;4992196;28;20201;-64
2022/06/13 08:23:13;;;;;;;5.05;1.15;;;14.90;99.90;;;;;;5018365;28;20193;-64
2022/06/13 08:25:42;;;;;;;2.72;1.67;;;15.00;99.90;;;;;;4999666;28;20209;-64
2022/06/13 08:28:10;;;;;;;3.22;1.40;;;15.20;99.90;;;;;;4989807;28;21134;-64
2022/06/13 08:30:39;;;;;;;4.53;1.10;;;15.10;99.90;;;;;;5015512;28;20210;-64
2022/06/13 08:33:07;;;;;;;1.52;0.90;;;15.60;99.90;;;;;;5000625;28;20340;-64
2022/06/13 08:35:34;;;;;;;2.90;1.13;;;15.10;99.90;;;;;;5011368;28;20197;-64
2022/06/13 08:38:03;;;;;;;4.80;1.17;;;;;;;;;;5002971;28;20567;-64
2022/06/13 08:40:37;;;;;;;3.38;1.00;;;15.30;99.90;;;;;;5015650;28;20671;-64
2022/06/13 08:43:13;;;;;;;3.53;1.20;;;15.40;99.90;;;;;;5001132;28;20712;-64
2022/06/13 08:45:47;;;;;;;3.40;1.10;;;15.40;99.90;;;;;;4989308;28;20686;-64
2022/06/13 08:48:21;;;;;;;2.13;1.23;;;15.60;99.90;;;;;;5011185;28;20450;-64
2022/06/13 08:50:53;;;;;;;1.63;1.05;;;15.70;99.90;;;;;;5010722;28;20205;-64
2022/06/13 08:53:24;;;;;;;1.83;1.05;;;15.60;99.90;;;;;;5023170;28;20934;-64
2022/06/13 08:55:55;;;;;;;2.92;1.40;;;15.70;99.90;;;;;;5001029;28;20206;-63
2022/06/13 08:58:29;;;;;;;2.53;1.10;;;15.80;99.90;;;;;;5015721;28;20202;-64
2022/06/13 09:01:00;;;;;;;3.50;0.95;;;16.30;99.90;;;;;;5004630;28;20217;-63
2022/06/13 09:03:32;;;;;;;2.08;1.33;;;15.80;99.90;;;;;;5000799;28;20205;-64
2022/06/13 09:06:02;;;;;;;1.65;1.02;;;15.80;99.90;;;;;;5006359;28;20221;-63
2022/06/13 09:08:38;;;;;;;4.22;0.80;;;16.50;99.90;;;;;;5016718;28;20221;-64
2022/06/13 09:11:11;;;;;;;7.32;1.00;;;16.00;99.90;;;;;;5006928;28;20228;-63
2022/06/13 09:13:45;;;;;;;5.03;1.15;;;15.80;99.90;;;;;;5022464;28;20206;-63
2022/06/13 09:16:16;;;;;;;8.13;1.17;;;15.90;99.90;;;;;;4994763;28;20314;-64
2022/06/13 09:18:48;;;;;;;2.53;1.00;;;16.20;99.90;;;;;;5019242;28;20208;-63
2022/06/13 09:21:23;;;;;;;2.53;1.05;;;16.20;99.90;;;;;;5010412;28;20434;-64
2022/06/13 09:23:58;;;;;;;1.50;0.73;;;16.20;99.90;;;;;;5017796;28;20205;-63
2022/06/13 09:26:32;;;;;;;1.00;0.85;;;15.90;99.90;;;;;;5014623;28;20212;-63
2022/06/13 09:29:09;;;;;;;0.90;0.50;;;15.40;99.90;;;;;;5008629;28;20730;-63
2022/06/13 09:31:40;;;;;;;2.63;0.90;;;15.20;99.90;;;;;;5005213;28;20216;-63
2022/06/13 09:34:12;;;;;;;1.40;0.75;;;15.00;99.90;;;;;;5003344;28;20370;-63
2022/06/13 09:36:45;;;;;;;2.90;0.73;;;15.00;99.90;;;;;;4994819;28;20209;-63
2022/06/13 09:39:15;;;;;;;0.60;0.50;;;14.90;99.90;;;;;;5009567;28;20848;-64
2022/06/13 09:42:15;;;;;;;1.27;0.80;;;14.90;99.90;;;;;;5010764;28;20241;-64
2022/06/13 09:45:01;;;;;;;3.50;0.90;;;14.90;99.90;;;;;;4981278;28;20210;-64
2022/06/13 09:47:42;;;;;;;1.70;1.10;;;14.90;99.90;;;;;;4991107;28;20210;-64
2022/06/13 09:50:16;;;;;;;3.95;1.35;;;15.00;99.90;;;;;;4999556;28;20340;-63
2022/06/13 09:52:52;;;;;;;4.88;1.05;;;15.00;99.90;;;;;;5002590;28;20197;-63
2022/06/13 09:55:24;;;;;;;5.05;0.98;;;14.90;99.90;;;;;;5017737;28;20231;-63
2022/06/13 09:58:03;;;;;;;2.90;1.25;;;15.00;99.90;;;;;;5007176;28;20211;-63
2022/06/13 10:00:38;;;;;;;4.90;1.23;;;16.20;99.90;;;;;;4994804;28;20224;-64
2022/06/13 10:03:16;;;;;;;3.05;0.95;;;15.60;99.90;;;;;;4987307;28;21386;-63
2022/06/13 10:05:48;;;;;;;2.20;1.05;;;15.00;99.90;;;;;;5004492;28;20312;-64
2022/06/13 10:08:39;;;;;;;5.63;1.40;;;14.90;99.90;;;;;;5009511;28;20972;-64
2022/06/13 10:11:14;;;;;;;4.13;1.27;;;15.00;99.90;;;;;;5000198;28;20229;-64
2022/06/13 10:14:04;;;;;;;1.98;0.98;;;15.10;99.90;;;;;;5020276;28;20206;-63
2022/06/13 10:16:40;;;;;;;0.73;0.73;;;15.20;99.90;;;;;;5026946;28;20209;-64
2022/06/13 10:19:16;;;;;;;2.78;0.98;;;15.40;99.90;;;;;;4977728;28;20209;-64
2022/06/13 10:21:47;;;;;;;1.20;0.73;;;15.40;99.90;;;;;;5013928;28;20232;-64
2022/06/13 10:24:25;;;;;;;1.85;0.90;;;15.60;99.90;;;;;;5018120;28;20869;-64
2022/06/13 10:27:00;;;;;;;2.13;0.90;;;15.70;99.90;;;;;;5003345;28;20691;-65
2022/06/13 10:29:59;;;;;;;1.00;0.80;;;15.80;99.90;;;;;;5008387;28;20243;-63
2022/06/13 10:32:43;;;;;;;4.78;0.98;;;16.10;99.90;;;;;;4989036;28;20949;-63
2022/06/13 10:35:22;;;;;;;2.85;1.35;;;16.10;99.90;;;;;;5014279;28;20206;-63
2022/06/13 10:37:59;;;;;;;3.20;0.90;;;16.10;99.90;;;;;;5007703;28;20588;-64
2022/06/13 10:40:27;;;;;;;1.00;0.90;;;16.00;99.90;;;;;;5023208;28;20209;-64
2022/06/13 10:42:55;;;;;;;1.25;0.70;;;15.80;99.90;;;;;;5009859;28;20229;-63
2022/06/13 10:45:23;;;;;;;4.70;1.00;;;16.00;99.90;;;;;;4999111;28;20327;-64
2022/06/13 10:47:57;;;;;;;4.65;0.98;;;15.60;99.90;;;;;;4986512;28;20236;-63
2022/06/13 10:50:29;;;;;;;3.13;1.27;;;15.70;99.90;;;;;;4995143;28;20228;-63
2022/06/13 10:53:01;;;;;;;7.60;1.10;;;15.70;99.90;;;;;;5004767;28;20297;-63
2022/06/13 10:55:34;;;;;;;4.07;0.98;;;15.70;99.90;;;;;;4999711;28;20209;-63
2022/06/13 10:58:06;;;;;;;2.50;1.05;;;15.80;99.90;;;;;;5005916;28;20209;-62
2022/06/13 11:00:33;;;;;;;2.38;0.70;;;15.90;99.90;;;;;;5007334;28;20730;-63
2022/06/13 11:03:17;;;;;;;4.32;1.00;;;15.80;99.90;;;;;;4991759;28;20703;-62
2022/06/13 11:05:52;;;;;;;7.97;1.17;;;15.90;99.90;;;;;;5022009;28;20263;-63
2022/06/13 11:08:19;;;;;;;1.38;0.73;;;16.00;99.90;;;;;;4992034;28;20228;-63
2022/06/13 11:10:54;;;;;;;2.60;1.23;;;15.80;99.90;;;;;;5025976;28;20233;-63
2022/06/13 11:13:26;;;;;;;3.50;1.30;;;15.60;99.90;;;;;;5019180;28;20197;-62
2022/06/13 11:24:20;;;;;;;5.25;0.93;;;15.90;99.90;;;;;;5017780;28;20208;-63
2022/06/13 11:29:36;;;;;;;2.42;0.88;;;15.90;99.90;;;;;;5020534;28;20232;-63
2022/06/13 11:32:06;;;;;;;1.88;0.82;;;16.30;99.90;;;;;;5013600;28;20236;-63
2022/06/13 11:34:38;;;;;;;3.75;0.85;;;16.50;99.90;;;;;;4993930;28;20715;-63
2022/06/13 11:37:06;;;;;;;4.32;0.88;;;16.30;99.90;;;;;;5024318;28;20202;-62
2022/06/13 11:39:36;;;;;;;3.15;0.90;;;16.00;99.90;;;;;;4999710;28;20194;-63
2022/06/13 11:42:13;;;;;;;2.53;0.85;;;15.80;99.90;;;;;;4996130;28;20322;-62
2022/06/13 11:44:43;;;;;;;2.50;1.13;;;15.80;99.90;;;;;;5006325;28;20221;-62
2022/06/13 11:47:11;;;;;;;2.67;1.00;;;15.70;99.90;;;;;;4995867;28;20222;-62
2022/06/13 11:49:41;;;;;;;2.45;0.93;;;15.60;99.90;;;;;;4992130;28;20236;-62
2022/06/13 11:55:26;;;;;;;2.47;1.23;;;15.80;99.90;;;;;;5004255;28;20285;-62
2022/06/13 11:57:56;;;;;;;3.50;0.80;;;16.10;99.90;;;;;;5005476;28;20202;-63
2022/06/13 12:00:29;;;;;;;1.27;0.80;;;15.70;99.90;;;;;;5002344;28;20735;-63
2022/06/13 12:03:05;;;;;;;1.40;0.70;;;15.90;99.90;;;;;;4987355;28;20204;-62
2022/06/13 12:05:36;;;;;;;1.23;0.60;;;15.80;99.90;;;;;;4996726;28;20205;-62
2022/06/13 12:08:17;;;;;;;2.38;0.95;;;15.70;99.90;;;;;;5003506;28;20206;-62
2022/06/13 12:11:00;;;;;;;1.70;0.90;;;15.70;99.90;;;;;;4987652;28;20236;-62
2022/06/13 12:13:30;;;;;;;7.78;1.20;;;15.80;99.90;;;;;;5014226;28;20217;-62
2022/06/13 12:16:18;;;;;;;5.25;1.10;;;15.90;99.90;;;;;;5002792;28;20634;-62
2022/06/13 12:18:52;;;;;;;3.00;1.00;;;16.30;99.90;;;;;;5023416;28;20218;-62
2022/06/13 12:21:28;;;;;;;2.67;1.00;;;15.90;99.90;;;;;;5009389;28;20224;-62
2022/06/13 12:24:02;;;;;;;6.68;1.20;;;15.90;99.90;;;;;;4996044;28;20239;-62
2022/06/13 12:26:32;;;;;;;7.30;1.35;;;15.90;99.90;;;;;;5001878;28;20201;-62
2022/06/13 12:29:07;;;;;;;2.40;0.93;;;16.10;99.90;;;;;;5017409;28;20207;-62
2022/06/13 12:31:41;;;;;;;3.30;1.05;;;16.20;99.90;;;;;;5009828;28;20642;-62
2022/06/13 12:34:18;;;;;;;6.43;1.00;;;16.20;99.90;;;;;;5018653;28;20216;-62
2022/06/13 12:36:59;;;;;;;7.40;1.30;;;16.20;99.90;;;;;;4996849;28;20302;-62
2022/06/13 12:39:41;;;;;;;6.28;1.35;;;16.00;99.90;;;;;;5011182;28;20201;-62
2022/06/13 12:42:20;;;;;;;4.80;1.45;;;15.90;99.90;;;;;;5003801;28;20701;-62
2022/06/13 12:45:03;;;;;;;6.57;1.10;;;15.60;99.90;;;;;;5018263;28;20201;-62
2022/06/13 12:47:47;;;;;;;3.47;1.20;;;15.40;99.90;;;;;;5016204;28;20240;-62
2022/06/13 12:50:40;;;;;;;1.92;0.90;;;15.90;99.90;;;;;;5020039;28;20233;-62
2022/06/13 12:53:21;;;;;;;3.17;1.02;;;15.50;99.90;;;;;;5000090;28;20233;-62
2022/06/13 12:55:53;;;;;;;7.25;1.88;;;15.90;99.90;;;;;;4994659;28;20201;-62
2022/06/13 12:58:53;;;;;;;7.05;1.83;;;16.30;99.90;;;;;;5016685;28;20218;-63
2022/06/13 13:01:23;;;;;;;2.92;1.25;;;16.50;99.90;;;;;;4990397;28;20698;-62
2022/06/13 13:04:20;;;;;;;6.05;1.30;;;16.50;99.90;;;;;;4992217;28;20222;-63
2022/06/13 13:06:55;;;;;;;3.42;1.50;;;15.50;99.90;;;;;;4995837;28;20205;-63
2022/06/13 13:09:42;;;;;;;4.28;1.10;;;16.80;99.90;;;;;;5007540;28;20205;-63
2022/06/13 13:12:32;;;;;;;11.75;1.90;;;16.20;99.90;;;;;;4999317;28;20370;-62
2022/06/13 13:15:10;;;;;;;5.63;1.35;;;16.20;99.90;;;;;;5001709;28;20349;-63
2022/06/13 13:17:45;;;;;;;3.28;1.40;;;16.30;99.90;;;;;;4988321;28;20193;-63
2022/06/13 13:20:17;;;;;;;7.03;1.80;;;16.30;99.90;;;;;;5006154;28;20808;-62
2022/06/13 13:22:52;;;;;;;8.07;1.70;;;16.40;99.90;;;;;;4986542;28;20694;-63
2022/06/13 13:25:25;;;;;;;10.88;2.00;;;16.60;99.90;;;;;;5007494;28;20567;-62
2022/06/13 13:27:59;;;;;;;1.83;1.15;;;16.50;99.90;;;;;;4975353;28;20619;-62
2022/06/13 13:30:32;;;;;;;7.55;1.65;;;16.30;99.90;;;;;;5015503;28;20228;-63
2022/06/13 13:33:12;;;;;;;6.68;1.40;;;16.10;99.90;;;;;;5004661;28;20619;-62
2022/06/13 13:35:45;;;;;;;7.80;1.50;;;16.20;99.90;;;;;;4997239;28;21191;-63
2022/06/13 13:38:16;;;;;;;4.93;1.35;;;16.30;99.90;;;;;;5003890;28;22551;-63
2022/06/13 13:40:51;;;;;;;4.88;1.40;;;16.40;99.90;;;;;;5009479;28;20201;-63